sensor_id;sensor_type;location;lat;lon;timestamp;P1;durP1;ratioP1;P2;durP2;ratioP2
60078;SDS011;45951;45.824;8.824;2022-09-09T00:08:07;7.77;;;5.40;;
60078;SDS011;45951;45.824;8.824;2022-09-09T00:14:05;7.03;;;5.65;;
60078;SDS011;45951;45.824;8.824;2022-09-09T00:26:34;8.32;;;5.45;;
60078;SDS011;45951;45.824;8.824;2022-09-09T00:32:38;10.55;;;6.07;;
60078;SDS011;45951;45.824;8.824;2022-09-09T00:38:43;10.50;;;7.32;;
60078;SDS011;45951;45.824;8.824;2022-09-09T00:51:09;11.60;;;7.60;;
60078;SDS011;45951;45.824;8.824;2022-09-09T00:57:21;14.68;;;8.48;;
60078;SDS011;45951;45.824;8.824;2022-09-09T01:03:30;12.25;;;9.05;;
60078;SDS011;45951;45.824;8.824;2022-09-09T01:09:51;13.93;;;9.15;;
60078;SDS011;45951;45.824;8.824;2022-09-09T01:15:54;12.38;;;9.45;;
60078;SDS011;45951;45.824;8.824;2022-09-09T01:21:56;13.30;;;9.07;;
60078;SDS011;45951;45.824;8.824;2022-09-09T01:28:04;11.95;;;8.05;;
60078;SDS011;45951;45.824;8.824;2022-09-09T01:34:09;15.00;;;8.47;;
60078;SDS011;45951;45.824;8.824;2022-09-09T01:40:13;14.37;;;8.63;;
60078;SDS011;45951;45.824;8.824;2022-09-09T01:46:13;10.60;;;8.27;;
60078;SDS011;45951;45.824;8.824;2022-09-09T01:52:14;13.77;;;8.50;;
60078;SDS011;45951;45.824;8.824;2022-09-09T02:10:28;11.02;;;6.90;;
60078;SDS011;45951;45.824;8.824;2022-09-09T02:16:53;9.52;;;6.35;;
60078;SDS011;45951;45.824;8.824;2022-09-09T02:22:55;8.70;;;6.65;;
60078;SDS011;45951;45.824;8.824;2022-09-09T02:28:56;8.63;;;6.77;;
60078;SDS011;45951;45.824;8.824;2022-09-09T02:35:00;12.25;;;6.63;;
60078;SDS011;45951;45.824;8.824;2022-09-09T02:41:04;10.67;;;5.63;;
60078;SDS011;45951;45.824;8.824;2022-09-09T02:47:08;8.40;;;6.30;;
60078;SDS011;45951;45.824;8.824;2022-09-09T02:53:26;9.98;;;7.80;;
60078;SDS011;45951;45.824;8.824;2022-09-09T02:59:32;9.25;;;6.25;;
60078;SDS011;45951;45.824;8.824;2022-09-09T03:05:33;7.00;;;4.38;;
60078;SDS011;45951;45.824;8.824;2022-09-09T03:11:33;5.25;;;3.00;;
60078;SDS011;45951;45.824;8.824;2022-09-09T03:17:35;4.93;;;2.85;;
60078;SDS011;45951;45.824;8.824;2022-09-09T03:23:35;4.00;;;2.45;;
60078;SDS011;45951;45.824;8.824;2022-09-09T03:29:35;4.40;;;2.80;;
60078;SDS011;45951;45.824;8.824;2022-09-09T03:35:36;3.87;;;2.50;;
60078;SDS011;45951;45.824;8.824;2022-09-09T03:41:36;6.75;;;3.20;;
60078;SDS011;45951;45.824;8.824;2022-09-09T03:47:37;4.78;;;2.85;;
60078;SDS011;45951;45.824;8.824;2022-09-09T03:53:37;3.97;;;2.73;;
60078;SDS011;45951;45.824;8.824;2022-09-09T03:59:38;4.63;;;2.90;;
60078;SDS011;45951;45.824;8.824;2022-09-09T04:05:41;6.90;;;3.10;;
60078;SDS011;45951;45.824;8.824;2022-09-09T04:11:42;8.50;;;3.10;;
60078;SDS011;45951;45.824;8.824;2022-09-09T04:17:42;7.70;;;3.17;;
60078;SDS011;45951;45.824;8.824;2022-09-09T04:23:42;4.45;;;2.97;;
60078;SDS011;45951;45.824;8.824;2022-09-09T04:29:43;6.32;;;3.28;;
60078;SDS011;45951;45.824;8.824;2022-09-09T04:35:44;6.28;;;3.38;;
60078;SDS011;45951;45.824;8.824;2022-09-09T04:41:45;4.95;;;2.75;;
60078;SDS011;45951;45.824;8.824;2022-09-09T04:47:46;6.50;;;3.08;;
60078;SDS011;45951;45.824;8.824;2022-09-09T04:53:47;4.38;;;2.70;;
60078;SDS011;45951;45.824;8.824;2022-09-09T04:59:48;4.32;;;3.17;;
60078;SDS011;45951;45.824;8.824;2022-09-09T05:05:48;4.32;;;3.05;;
60078;SDS011;45951;45.824;8.824;2022-09-09T05:11:49;6.50;;;4.03;;
60078;SDS011;45951;45.824;8.824;2022-09-09T05:17:49;4.22;;;3.10;;
60078;SDS011;45951;45.824;8.824;2022-09-09T05:23:49;4.85;;;3.35;;
60078;SDS011;45951;45.824;8.824;2022-09-09T05:29:51;5.70;;;3.30;;
60078;SDS011;45951;45.824;8.824;2022-09-09T05:35:55;5.47;;;3.10;;
60078;SDS011;45951;45.824;8.824;2022-09-09T05:41:59;11.57;;;4.93;;
60078;SDS011;45951;45.824;8.824;2022-09-09T05:47:59;4.90;;;3.33;;
60078;SDS011;45951;45.824;8.824;2022-09-09T05:54:00;5.87;;;3.10;;
60078;SDS011;45951;45.824;8.824;2022-09-09T06:00:00;5.05;;;2.90;;
60078;SDS011;45951;45.824;8.824;2022-09-09T06:06:01;5.93;;;3.00;;
60078;SDS011;45951;45.824;8.824;2022-09-09T06:12:05;4.93;;;3.08;;
60078;SDS011;45951;45.824;8.824;2022-09-09T06:18:06;5.25;;;2.80;;
60078;SDS011;45951;45.824;8.824;2022-09-09T06:24:06;3.78;;;2.67;;
60078;SDS011;45951;45.824;8.824;2022-09-09T06:30:10;5.45;;;3.35;;
60078;SDS011;45951;45.824;8.824;2022-09-09T06:36:14;6.22;;;4.68;;
60078;SDS011;45951;45.824;8.824;2022-09-09T06:42:22;4.75;;;3.15;;
60078;SDS011;45951;45.824;8.824;2022-09-09T06:48:23;3.67;;;2.58;;
60078;SDS011;45951;45.824;8.824;2022-09-09T06:54:25;4.50;;;2.42;;
60078;SDS011;45951;45.824;8.824;2022-09-09T07:00:26;4.22;;;2.70;;
60078;SDS011;45951;45.824;8.824;2022-09-09T07:06:27;5.88;;;3.42;;
60078;SDS011;45951;45.824;8.824;2022-09-09T07:12:28;4.45;;;2.45;;
60078;SDS011;45951;45.824;8.824;2022-09-09T07:18:29;4.03;;;2.42;;
60078;SDS011;45951;45.824;8.824;2022-09-09T07:24:30;3.92;;;2.70;;
60078;SDS011;45951;45.824;8.824;2022-09-09T07:30:30;4.57;;;2.58;;
60078;SDS011;45951;45.824;8.824;2022-09-09T07:36:35;4.45;;;2.50;;
60078;SDS011;45951;45.824;8.824;2022-09-09T07:42:37;4.97;;;3.17;;
60078;SDS011;45951;45.824;8.824;2022-09-09T07:48:38;4.50;;;3.45;;
60078;SDS011;45951;45.824;8.824;2022-09-09T07:54:43;5.63;;;2.92;;
60078;SDS011;45951;45.824;8.824;2022-09-09T08:00:45;7.32;;;3.00;;
60078;SDS011;45951;45.824;8.824;2022-09-09T08:06:56;4.97;;;2.90;;
60078;SDS011;45951;45.824;8.824;2022-09-09T08:12:58;5.22;;;2.90;;
60078;SDS011;45951;45.824;8.824;2022-09-09T08:18:58;5.82;;;2.90;;
60078;SDS011;45951;45.824;8.824;2022-09-09T08:24:59;3.72;;;2.67;;
60078;SDS011;45951;45.824;8.824;2022-09-09T08:31:11;4.07;;;2.63;;
60078;SDS011;45951;45.824;8.824;2022-09-09T08:37:11;5.28;;;2.83;;
60078;SDS011;45951;45.824;8.824;2022-09-09T08:43:12;4.60;;;2.70;;
60078;SDS011;45951;45.824;8.824;2022-09-09T09:13:54;3.38;;;1.98;;
60078;SDS011;45951;45.824;8.824;2022-09-09T09:19:58;3.72;;;2.33;;
60078;SDS011;45951;45.824;8.824;2022-09-09T09:25:59;3.35;;;2.38;;
60078;SDS011;45951;45.824;8.824;2022-09-09T09:32:00;2.33;;;1.80;;
60078;SDS011;45951;45.824;8.824;2022-09-09T09:38:05;2.97;;;2.20;;
60078;SDS011;45951;45.824;8.824;2022-09-09T09:50:32;4.32;;;2.40;;
60078;SDS011;45951;45.824;8.824;2022-09-09T09:56:33;3.17;;;2.30;;
60078;SDS011;45951;45.824;8.824;2022-09-09T10:02:37;3.80;;;2.50;;
60078;SDS011;45951;45.824;8.824;2022-09-09T10:08:46;4.10;;;2.70;;
60078;SDS011;45951;45.824;8.824;2022-09-09T10:21:03;3.50;;;2.63;;
60078;SDS011;45951;45.824;8.824;2022-09-09T10:27:15;3.72;;;2.53;;
60078;SDS011;45951;45.824;8.824;2022-09-09T10:33:40;3.15;;;2.17;;
60078;SDS011;45951;45.824;8.824;2022-09-09T10:39:48;4.28;;;2.92;;
60078;SDS011;45951;45.824;8.824;2022-09-09T10:52:18;4.80;;;2.72;;
60078;SDS011;45951;45.824;8.824;2022-09-09T10:58:28;4.93;;;2.70;;
60078;SDS011;45951;45.824;8.824;2022-09-09T11:04:35;3.97;;;2.40;;
60078;SDS011;45951;45.824;8.824;2022-09-09T11:17:04;5.82;;;3.10;;
60078;SDS011;45951;45.824;8.824;2022-09-09T11:23:23;5.82;;;3.40;;
60078;SDS011;45951;45.824;8.824;2022-09-09T11:35:38;4.97;;;2.78;;
60078;SDS011;45951;45.824;8.824;2022-09-09T11:41:46;4.22;;;2.92;;
60078;SDS011;45951;45.824;8.824;2022-09-09T11:47:53;4.45;;;3.20;;
60078;SDS011;45951;45.824;8.824;2022-09-09T12:00:03;5.78;;;2.78;;
60078;SDS011;45951;45.824;8.824;2022-09-09T12:06:15;4.53;;;3.08;;
60078;SDS011;45951;45.824;8.824;2022-09-09T12:12:21;5.97;;;3.10;;
60078;SDS011;45951;45.824;8.824;2022-09-09T12:30:49;4.18;;;3.00;;
60078;SDS011;45951;45.824;8.824;2022-09-09T12:37:08;5.23;;;3.30;;
60078;SDS011;45951;45.824;8.824;2022-09-09T12:43:21;6.18;;;3.88;;
60078;SDS011;45951;45.824;8.824;2022-09-09T12:49:30;5.93;;;4.20;;
60078;SDS011;45951;45.824;8.824;2022-09-09T12:55:35;5.68;;;3.80;;
60078;SDS011;45951;45.824;8.824;2022-09-09T13:01:36;6.28;;;4.22;;
60078;SDS011;45951;45.824;8.824;2022-09-09T13:07:37;6.35;;;4.85;;
60078;SDS011;45951;45.824;8.824;2022-09-09T13:13:38;6.38;;;4.15;;
60078;SDS011;45951;45.824;8.824;2022-09-09T13:19:39;7.85;;;6.05;;
60078;SDS011;45951;45.824;8.824;2022-09-09T13:25:58;6.95;;;5.15;;
60078;SDS011;45951;45.824;8.824;2022-09-09T13:32:17;7.88;;;5.72;;
60078;SDS011;45951;45.824;8.824;2022-09-09T13:38:18;6.65;;;4.95;;
60078;SDS011;45951;45.824;8.824;2022-09-09T13:44:20;9.45;;;6.03;;
60078;SDS011;45951;45.824;8.824;2022-09-09T13:50:27;6.15;;;4.90;;
60078;SDS011;45951;45.824;8.824;2022-09-09T13:56:28;6.55;;;5.03;;
60078;SDS011;45951;45.824;8.824;2022-09-09T14:02:29;10.27;;;5.60;;
60078;SDS011;45951;45.824;8.824;2022-09-09T14:08:31;6.32;;;5.30;;
60078;SDS011;45951;45.824;8.824;2022-09-09T14:14:36;6.30;;;4.43;;
60078;SDS011;45951;45.824;8.824;2022-09-09T14:20:37;7.15;;;4.20;;
60078;SDS011;45951;45.824;8.824;2022-09-09T14:26:37;6.93;;;4.10;;
60078;SDS011;45951;45.824;8.824;2022-09-09T14:32:38;5.65;;;4.50;;
60078;SDS011;45951;45.824;8.824;2022-09-09T14:38:38;6.25;;;4.65;;
60078;SDS011;45951;45.824;8.824;2022-09-09T14:44:42;5.50;;;4.33;;
60078;SDS011;45951;45.824;8.824;2022-09-09T14:50:43;7.32;;;4.93;;
60078;SDS011;45951;45.824;8.824;2022-09-09T14:56:43;7.83;;;5.07;;
60078;SDS011;45951;45.824;8.824;2022-09-09T15:02:43;6.38;;;3.78;;
60078;SDS011;45951;45.824;8.824;2022-09-09T15:08:44;7.03;;;4.57;;
60078;SDS011;45951;45.824;8.824;2022-09-09T15:14:45;6.25;;;3.90;;
60078;SDS011;45951;45.824;8.824;2022-09-09T15:20:45;6.60;;;4.35;;
60078;SDS011;45951;45.824;8.824;2022-09-09T15:26:46;5.85;;;4.07;;
60078;SDS011;45951;45.824;8.824;2022-09-09T15:32:46;6.07;;;4.57;;
60078;SDS011;45951;45.824;8.824;2022-09-09T15:38:47;7.73;;;4.77;;
60078;SDS011;45951;45.824;8.824;2022-09-09T15:44:48;7.30;;;4.40;;
60078;SDS011;45951;45.824;8.824;2022-09-09T15:50:51;6.78;;;4.47;;
60078;SDS011;45951;45.824;8.824;2022-09-09T15:57:03;6.43;;;4.18;;
60078;SDS011;45951;45.824;8.824;2022-09-09T16:03:04;7.72;;;4.45;;
60078;SDS011;45951;45.824;8.824;2022-09-09T16:09:05;7.65;;;4.07;;
60078;SDS011;45951;45.824;8.824;2022-09-09T16:15:07;6.90;;;3.80;;
60078;SDS011;45951;45.824;8.824;2022-09-09T16:21:08;7.63;;;4.20;;
60078;SDS011;45951;45.824;8.824;2022-09-09T16:27:16;6.60;;;3.75;;
60078;SDS011;45951;45.824;8.824;2022-09-09T16:33:17;5.60;;;4.00;;
60078;SDS011;45951;45.824;8.824;2022-09-09T16:39:18;5.93;;;3.85;;
60078;SDS011;45951;45.824;8.824;2022-09-09T16:45:20;5.72;;;3.72;;
60078;SDS011;45951;45.824;8.824;2022-09-09T16:51:21;6.33;;;4.07;;
60078;SDS011;45951;45.824;8.824;2022-09-09T16:57:23;6.03;;;4.18;;
60078;SDS011;45951;45.824;8.824;2022-09-09T17:03:24;5.13;;;3.95;;
60078;SDS011;45951;45.824;8.824;2022-09-09T17:09:25;5.63;;;3.93;;
60078;SDS011;45951;45.824;8.824;2022-09-09T17:15:28;8.20;;;4.10;;
60078;SDS011;45951;45.824;8.824;2022-09-09T17:21:30;6.47;;;4.47;;
60078;SDS011;45951;45.824;8.824;2022-09-09T17:27:31;6.80;;;4.35;;
60078;SDS011;45951;45.824;8.824;2022-09-09T17:33:32;8.07;;;4.65;;
60078;SDS011;45951;45.824;8.824;2022-09-09T17:39:34;5.90;;;4.90;;
60078;SDS011;45951;45.824;8.824;2022-09-09T17:45:35;6.20;;;4.72;;
60078;SDS011;45951;45.824;8.824;2022-09-09T17:51:35;6.67;;;4.57;;
60078;SDS011;45951;45.824;8.824;2022-09-09T17:57:36;6.57;;;4.63;;
60078;SDS011;45951;45.824;8.824;2022-09-09T18:03:37;10.27;;;4.70;;
60078;SDS011;45951;45.824;8.824;2022-09-09T18:09:39;6.85;;;5.30;;
60078;SDS011;45951;45.824;8.824;2022-09-09T18:15:39;8.00;;;5.80;;
60078;SDS011;45951;45.824;8.824;2022-09-09T18:21:40;7.60;;;4.97;;
60078;SDS011;45951;45.824;8.824;2022-09-09T18:27:41;6.75;;;5.25;;
60078;SDS011;45951;45.824;8.824;2022-09-09T18:33:45;7.70;;;5.18;;
60078;SDS011;45951;45.824;8.824;2022-09-09T18:39:46;8.38;;;5.50;;
60078;SDS011;45951;45.824;8.824;2022-09-09T18:45:47;6.87;;;5.60;;
60078;SDS011;45951;45.824;8.824;2022-09-09T18:51:47;12.23;;;6.00;;
60078;SDS011;45951;45.824;8.824;2022-09-09T18:57:47;7.32;;;5.63;;
60078;SDS011;45951;45.824;8.824;2022-09-09T19:03:49;9.95;;;5.57;;
60078;SDS011;45951;45.824;8.824;2022-09-09T19:09:50;6.30;;;5.00;;
60078;SDS011;45951;45.824;8.824;2022-09-09T19:15:51;8.73;;;5.72;;
60078;SDS011;45951;45.824;8.824;2022-09-09T19:21:51;7.17;;;5.10;;
60078;SDS011;45951;45.824;8.824;2022-09-09T19:27:52;7.22;;;5.10;;
60078;SDS011;45951;45.824;8.824;2022-09-09T19:33:52;6.80;;;4.70;;
60078;SDS011;45951;45.824;8.824;2022-09-09T19:39:54;9.60;;;4.80;;
60078;SDS011;45951;45.824;8.824;2022-09-09T19:45:58;7.03;;;4.70;;
60078;SDS011;45951;45.824;8.824;2022-09-09T19:52:01;6.53;;;4.70;;
60078;SDS011;45951;45.824;8.824;2022-09-09T19:58:02;8.40;;;4.40;;
60078;SDS011;45951;45.824;8.824;2022-09-09T20:04:03;7.68;;;4.57;;
60078;SDS011;45951;45.824;8.824;2022-09-09T20:10:05;7.80;;;4.90;;
60078;SDS011;45951;45.824;8.824;2022-09-09T20:16:10;6.95;;;4.68;;
60078;SDS011;45951;45.824;8.824;2022-09-09T20:22:12;5.30;;;4.43;;
60078;SDS011;45951;45.824;8.824;2022-09-09T20:28:13;7.30;;;4.68;;
60078;SDS011;45951;45.824;8.824;2022-09-09T20:34:14;7.28;;;5.05;;
60078;SDS011;45951;45.824;8.824;2022-09-09T20:40:17;5.85;;;4.45;;
60078;SDS011;45951;45.824;8.824;2022-09-09T20:46:20;6.78;;;4.65;;
60078;SDS011;45951;45.824;8.824;2022-09-09T20:52:22;8.45;;;4.70;;
60078;SDS011;45951;45.824;8.824;2022-09-09T20:58:22;6.63;;;5.03;;
60078;SDS011;45951;45.824;8.824;2022-09-09T21:04:23;6.10;;;4.75;;
60078;SDS011;45951;45.824;8.824;2022-09-09T21:10:24;6.20;;;4.22;;
60078;SDS011;45951;45.824;8.824;2022-09-09T21:16:25;7.05;;;3.92;;
60078;SDS011;45951;45.824;8.824;2022-09-09T21:22:26;7.82;;;4.60;;
60078;SDS011;45951;45.824;8.824;2022-09-09T21:28:28;5.22;;;3.92;;
60078;SDS011;45951;45.824;8.824;2022-09-09T21:34:32;6.63;;;4.20;;
60078;SDS011;45951;45.824;8.824;2022-09-09T21:40:36;5.63;;;4.18;;
60078;SDS011;45951;45.824;8.824;2022-09-09T21:46:37;5.70;;;4.10;;
60078;SDS011;45951;45.824;8.824;2022-09-09T21:52:37;6.45;;;4.30;;
60078;SDS011;45951;45.824;8.824;2022-09-09T21:58:38;7.00;;;4.20;;
60078;SDS011;45951;45.824;8.824;2022-09-09T22:04:39;6.20;;;4.35;;
60078;SDS011;45951;45.824;8.824;2022-09-09T22:10:42;6.43;;;4.75;;
60078;SDS011;45951;45.824;8.824;2022-09-09T22:16:46;4.80;;;4.03;;
60078;SDS011;45951;45.824;8.824;2022-09-09T22:22:46;5.65;;;4.22;;
60078;SDS011;45951;45.824;8.824;2022-09-09T22:28:47;5.97;;;3.70;;
60078;SDS011;45951;45.824;8.824;2022-09-09T22:34:48;5.43;;;4.07;;
60078;SDS011;45951;45.824;8.824;2022-09-09T22:40:50;6.30;;;4.13;;
60078;SDS011;45951;45.824;8.824;2022-09-09T22:46:51;5.05;;;3.75;;
60078;SDS011;45951;45.824;8.824;2022-09-09T22:52:52;5.22;;;3.70;;
60078;SDS011;45951;45.824;8.824;2022-09-09T22:58:54;5.13;;;3.95;;
60078;SDS011;45951;45.824;8.824;2022-09-09T23:04:54;5.30;;;3.70;;
60078;SDS011;45951;45.824;8.824;2022-09-09T23:10:58;5.63;;;4.15;;
60078;SDS011;45951;45.824;8.824;2022-09-09T23:16:59;5.65;;;3.63;;
60078;SDS011;45951;45.824;8.824;2022-09-09T23:23:01;4.63;;;3.40;;
60078;SDS011;45951;45.824;8.824;2022-09-09T23:29:02;6.97;;;3.17;;
60078;SDS011;45951;45.824;8.824;2022-09-09T23:35:02;5.43;;;3.07;;
60078;SDS011;45951;45.824;8.824;2022-09-09T23:41:04;4.35;;;3.40;;
60078;SDS011;45951;45.824;8.824;2022-09-09T23:47:06;5.10;;;3.20;;
60078;SDS011;45951;45.824;8.824;2022-09-09T23:53:08;6.28;;;3.35;;
60078;SDS011;45951;45.824;8.824;2022-09-09T23:59:11;5.05;;;2.90;;
